createdAt,value
2022-11-05T00:00:16.004Z,7.97
2022-11-05T00:03:34.137Z,7.82
2022-11-05T00:06:52.208Z,7.62
2022-11-05T00:10:16.227Z,7.67
2022-11-05T00:13:37.148Z,7.60
2022-11-05T00:16:48.624Z,7.51
2022-11-05T00:19:54.420Z,7.37
2022-11-05T00:23:16.583Z,7.18
2022-11-05T00:26:22.382Z,7.16
2022-11-05T00:29:47.132Z,7.26
2022-11-05T00:32:55.547Z,7.31
2022-11-05T00:36:08.469Z,7.23
2022-11-05T00:39:19.554Z,7.24
2022-11-05T00:42:37.754Z,7.31
2022-11-05T00:45:46.837Z,7.27
2022-11-05T00:49:04.865Z,7.12
2022-11-05T00:52:22.726Z,6.90
2022-11-05T00:55:38.321Z,6.85
2022-11-05T00:58:44.164Z,6.84
2022-11-05T01:01:53.161Z,6.65
2022-11-05T01:04:59.207Z,6.84
2022-11-05T01:08:05.211Z,6.87
2022-11-05T01:11:33.591Z,6.83
2022-11-05T01:14:39.574Z,6.82
2022-11-05T01:17:48.080Z,6.86
2022-11-05T01:20:54.561Z,6.84
2022-11-05T01:24:00.971Z,6.94
2022-11-05T01:27:12.575Z,6.94
2022-11-05T01:30:21.457Z,6.78
2022-11-05T01:33:32.810Z,6.77
2022-11-05T01:36:38.706Z,6.55
2022-11-05T01:39:44.575Z,6.68
2022-11-05T01:42:50.883Z,6.60
2022-11-05T01:46:02.030Z,6.54
2022-11-05T01:49:24.312Z,6.72
2022-11-05T01:52:33.805Z,6.77
2022-11-05T01:55:47.343Z,6.72
2022-11-05T01:59:10.926Z,6.73
2022-11-05T02:02:17.043Z,6.45
2022-11-05T02:05:26.574Z,6.58
2022-11-05T02:08:58.660Z,6.66
2022-11-05T02:12:05.269Z,6.57
2022-11-05T02:15:16.299Z,6.63
2022-11-05T02:18:41.217Z,6.46
2022-11-05T02:22:31.456Z,6.29
2022-11-05T02:26:39.374Z,6.30
2022-11-05T02:30:08.990Z,6.30
2022-11-05T02:33:34.305Z,6.24
2022-11-05T02:36:53.218Z,6.42
2022-11-05T02:40:17.147Z,6.44
2022-11-05T02:43:39.697Z,6.55
2022-11-05T02:47:02.177Z,6.44
2022-11-05T02:50:29.257Z,6.41
2022-11-05T02:53:51.646Z,6.48
2022-11-05T02:57:03.093Z,6.41
2022-11-05T03:00:47.740Z,6.39
2022-11-05T03:04:00.394Z,6.53
2022-11-05T03:07:45.427Z,6.52
2022-11-05T03:11:05.440Z,6.58
2022-11-05T03:14:27.177Z,6.58
2022-11-05T03:17:45.551Z,6.53
2022-11-05T03:21:02.544Z,6.53
2022-11-05T03:24:21.223Z,6.59
2022-11-05T03:27:34.724Z,6.56
2022-11-05T03:30:45.991Z,6.42
2022-11-05T03:33:56.112Z,6.53
2022-11-05T03:37:07.560Z,6.34
2022-11-05T03:40:22.591Z,6.31
2022-11-05T03:43:43.193Z,6.31
2022-11-05T03:46:55.419Z,6.36
2022-11-05T03:50:17.371Z,6.44
2022-11-05T03:53:31.498Z,6.40
2022-11-05T03:57:00.863Z,6.19
2022-11-05T04:00:11.534Z,6.35
2022-11-05T04:03:20.648Z,6.24
2022-11-05T04:06:38.762Z,6.11
2022-11-05T04:09:56.703Z,6.02
2022-11-05T04:13:17.268Z,6.08
2022-11-05T04:16:40.937Z,6.16
2022-11-05T04:20:01.073Z,6.06
2022-11-05T04:23:22.263Z,6.15
2022-11-05T04:26:27.777Z,6.15
2022-11-05T04:29:48.349Z,6.24
2022-11-05T04:33:07.698Z,6.35
2022-11-05T04:36:13.389Z,6.22
2022-11-05T04:39:20.013Z,6.24
2022-11-05T04:42:25.569Z,6.30
2022-11-05T04:45:37.204Z,6.32
2022-11-05T04:48:42.852Z,6.31
2022-11-05T04:51:48.382Z,6.30
2022-11-05T04:54:53.921Z,6.32
2022-11-05T04:57:59.551Z,6.13
2022-11-05T05:01:07.843Z,6.16
2022-11-05T05:04:13.491Z,6.06
2022-11-05T05:07:19.103Z,6.17
2022-11-05T05:10:24.647Z,6.22
2022-11-05T05:13:30.169Z,6.20
2022-11-05T05:16:38.343Z,6.21
2022-11-05T05:19:56.464Z,6.13
2022-11-05T05:23:02.001Z,6.18
2022-11-05T05:26:07.704Z,6.24
2022-11-05T05:29:15.004Z,6.01
2022-11-05T05:32:23.570Z,6.10
2022-11-05T05:35:29.193Z,6.09
2022-11-05T05:38:34.792Z,6.17
2022-11-05T05:41:40.352Z,6.10
2022-11-05T05:44:45.965Z,6.07
2022-11-05T05:47:54.094Z,6.09
2022-11-05T05:51:04.705Z,6.07
2022-11-05T05:54:10.321Z,6.00
2022-11-05T05:57:15.983Z,6.12
2022-11-05T06:00:21.859Z,6.19
2022-11-05T06:03:32.714Z,6.09
2022-11-05T06:06:40.577Z,6.17
2022-11-05T06:09:46.845Z,6.15
2022-11-05T06:12:52.391Z,5.98
2022-11-05T06:16:05.054Z,5.97
2022-11-05T06:19:13.231Z,6.01
2022-11-05T06:22:18.917Z,6.13
2022-11-05T06:25:24.601Z,6.05
2022-11-05T06:28:30.514Z,6.13
2022-11-05T06:31:36.137Z,6.07
2022-11-05T06:34:44.529Z,6.06
2022-11-05T06:37:50.235Z,6.04
2022-11-05T06:40:56.226Z,6.13
2022-11-05T06:44:05.072Z,6.15
2022-11-05T06:47:12.762Z,6.18
2022-11-05T06:50:21.203Z,6.19
2022-11-05T06:53:27.031Z,6.24
2022-11-05T06:56:32.610Z,6.25
2022-11-05T06:59:38.649Z,6.26
2022-11-05T07:02:44.353Z,6.22
2022-11-05T07:05:54.348Z,6.23
2022-11-05T07:09:00.042Z,6.27
2022-11-05T07:12:05.926Z,6.29
2022-11-05T07:15:13.607Z,6.30
2022-11-05T07:18:19.946Z,6.33
2022-11-05T07:21:28.418Z,6.30
2022-11-05T07:24:35.001Z,6.32
2022-11-05T07:27:42.258Z,6.46
2022-11-05T07:30:48.516Z,6.61
2022-11-05T07:33:54.166Z,6.71
2022-11-05T07:37:03.177Z,6.60
2022-11-05T07:40:18.303Z,6.64
2022-11-05T07:43:24.103Z,6.51
2022-11-05T07:46:29.958Z,6.67
2022-11-05T07:49:38.482Z,6.63
2022-11-05T07:52:54.315Z,6.44
2022-11-05T07:56:00.971Z,6.44
2022-11-05T07:59:07.054Z,6.54
2022-11-05T08:02:14.187Z,6.69
2022-11-05T08:05:20.206Z,6.74
2022-11-05T08:08:29.193Z,6.81
2022-11-05T08:11:36.036Z,6.75
2022-11-05T08:14:43.745Z,6.67
2022-11-05T08:17:49.849Z,6.68
2022-11-05T08:20:55.502Z,6.63
2022-11-05T08:24:03.945Z,6.50
2022-11-05T08:27:09.637Z,6.45
2022-11-05T08:30:17.790Z,6.61
2022-11-05T08:33:24.635Z,6.52
2022-11-05T08:36:30.209Z,6.44
2022-11-05T08:39:38.523Z,6.51
2022-11-05T08:42:44.166Z,6.43
2022-11-05T08:46:05.590Z,6.52
2022-11-05T08:49:15.729Z,6.67
2022-11-05T08:52:21.335Z,6.72
2022-11-05T08:55:41.109Z,6.75
2022-11-05T08:58:46.868Z,6.80
2022-11-05T09:01:53.310Z,6.77
2022-11-05T09:04:58.999Z,6.79
2022-11-05T09:08:04.657Z,6.85
2022-11-05T09:11:19.099Z,6.99
2022-11-05T09:14:27.170Z,6.82
2022-11-05T09:17:33.025Z,6.67
2022-11-05T09:20:40.213Z,6.80
2022-11-05T09:23:45.934Z,6.75
2022-11-05T09:26:54.179Z,6.69
2022-11-05T09:29:59.828Z,6.93
2022-11-05T09:33:12.705Z,7.05
2022-11-05T09:36:22.506Z,7.07
2022-11-05T09:39:38.172Z,7.05
2022-11-05T09:42:52.590Z,7.13
2022-11-05T09:46:05.219Z,7.17
2022-11-05T09:49:29.205Z,7.20
2022-11-05T09:52:37.848Z,7.17
2022-11-05T09:55:48.896Z,7.18
2022-11-05T09:59:04.321Z,7.19
2022-11-05T10:02:22.396Z,7.22
2022-11-05T10:05:31.690Z,7.15
2022-11-05T10:08:47.797Z,7.07
2022-11-05T10:12:00.963Z,7.15
2022-11-05T10:15:21.994Z,7.14
2022-11-05T10:18:35.614Z,7.05
2022-11-05T10:22:05.733Z,6.96
2022-11-05T10:25:21.874Z,6.96
2022-11-05T10:28:30.545Z,6.96
2022-11-05T10:31:41.544Z,6.89
2022-11-05T10:34:48.441Z,6.97
2022-11-05T10:37:56.359Z,7.15
2022-11-05T10:41:28.370Z,7.00
2022-11-05T10:44:49.006Z,6.94
2022-11-05T10:48:24.816Z,7.08
2022-11-05T10:51:31.640Z,7.11
2022-11-05T10:54:39.197Z,7.18
2022-11-05T10:57:46.090Z,7.36
2022-11-05T11:01:11.245Z,7.38
2022-11-05T11:04:27.663Z,7.45
2022-11-05T11:07:33.866Z,7.48
2022-11-05T11:10:53.812Z,7.41
2022-11-05T11:14:07.547Z,7.31
2022-11-05T11:17:30.052Z,7.28
2022-11-05T11:20:47.564Z,7.32
2022-11-05T11:24:00.716Z,7.37
2022-11-05T11:27:15.828Z,7.47
2022-11-05T11:30:24.037Z,7.49
2022-11-05T11:33:32.621Z,7.49
2022-11-05T11:36:51.910Z,7.45
2022-11-05T11:40:05.524Z,7.56
2022-11-05T11:43:29.514Z,7.62
2022-11-05T11:46:38.298Z,7.53
2022-11-05T11:49:50.191Z,7.57
2022-11-05T11:52:58.475Z,7.61
2022-11-05T11:56:21.296Z,7.71
2022-11-05T12:00:01.945Z,7.56
2022-11-05T12:03:23.636Z,7.66
2022-11-05T12:06:43.259Z,7.52
2022-11-05T12:10:19.541Z,7.61
2022-11-05T12:13:58.630Z,7.71
2022-11-05T12:17:28.240Z,7.65
2022-11-05T12:21:03.879Z,7.58
2022-11-05T12:24:36.105Z,7.58
2022-11-05T12:28:13.376Z,7.44
2022-11-05T12:31:36.247Z,7.51
2022-11-05T12:35:02.800Z,7.61
2022-11-05T12:38:32.882Z,7.71
2022-11-05T12:41:53.546Z,7.75
2022-11-05T12:45:15.434Z,7.68
2022-11-05T12:48:54.106Z,7.55
2022-11-05T12:52:23.566Z,7.51
2022-11-05T12:55:37.965Z,7.64
2022-11-05T12:58:51.156Z,7.82
2022-11-05T13:02:11.624Z,7.63
2022-11-05T13:05:26.577Z,7.59
2022-11-05T13:08:45.955Z,7.38
2022-11-05T13:11:58.983Z,7.52
2022-11-05T13:15:28.729Z,7.46
2022-11-05T13:18:49.045Z,7.42
2022-11-05T13:22:08.041Z,7.41
2022-11-05T13:25:24.269Z,7.27
2022-11-05T13:28:47.082Z,7.20
2022-11-05T13:32:01.548Z,7.01
2022-11-05T13:35:27.200Z,7.10
2022-11-05T13:38:48.616Z,7.16
2022-11-05T13:42:26.489Z,7.10
2022-11-05T13:46:15.858Z,7.15
2022-11-05T13:50:01.911Z,7.06
2022-11-05T13:54:01.162Z,7.17
2022-11-05T13:57:36.618Z,7.08
2022-11-05T14:01:02.137Z,7.19
2022-11-05T14:04:09.649Z,7.05
2022-11-05T14:07:23.793Z,7.22
2022-11-05T14:10:50.725Z,7.33
2022-11-05T14:14:04.205Z,7.21
2022-11-05T14:17:31.621Z,7.14
2022-11-05T14:21:01.871Z,7.29
2022-11-05T14:24:31.204Z,7.30
2022-11-05T14:27:51.202Z,7.28
2022-11-05T14:30:57.029Z,7.34
2022-11-05T14:34:31.683Z,7.33
2022-11-05T14:37:42.856Z,7.14
2022-11-05T14:40:51.741Z,7.22
2022-11-05T14:44:11.102Z,7.30
2022-11-05T14:47:31.369Z,7.27
2022-11-05T14:50:44.992Z,7.34
2022-11-05T14:53:51.386Z,7.32
2022-11-05T14:57:00.760Z,7.36
2022-11-05T15:00:48.622Z,7.30
2022-11-05T15:04:23.245Z,7.48
2022-11-05T15:07:41.434Z,7.44
2022-11-05T15:10:48.840Z,7.41
2022-11-05T15:14:08.625Z,7.37
2022-11-05T15:17:30.095Z,7.29
2022-11-05T15:20:46.511Z,7.33
2022-11-05T15:23:59.334Z,7.22
2022-11-05T15:27:20.046Z,7.22
2022-11-05T15:30:27.885Z,7.36
2022-11-05T15:33:36.554Z,7.28
2022-11-05T15:36:43.872Z,7.18
2022-11-05T15:39:52.928Z,7.22
2022-11-05T15:43:12.882Z,7.30
2022-11-05T15:46:23.170Z,6.95
2022-11-05T15:49:32.399Z,6.95
2022-11-05T15:52:42.941Z,6.90
2022-11-05T15:56:02.090Z,6.79
2022-11-05T15:59:19.947Z,6.56
2022-11-05T16:02:40.441Z,6.58
2022-11-05T16:05:53.580Z,6.59
2022-11-05T16:08:59.810Z,6.42
2022-11-05T16:12:35.231Z,6.62
2022-11-05T16:15:41.075Z,6.63
2022-11-05T16:18:48.760Z,6.52
2022-11-05T16:22:00.058Z,6.67
2022-11-05T16:25:41.813Z,6.70
2022-11-05T16:28:54.259Z,6.74
2022-11-05T16:32:03.107Z,6.64
2022-11-05T16:35:19.565Z,6.63
2022-11-05T16:38:28.252Z,6.64
2022-11-05T16:41:34.957Z,6.63
2022-11-05T16:44:40.612Z,6.67
2022-11-05T16:47:48.406Z,6.69
2022-11-05T16:50:54.689Z,6.72
2022-11-05T16:54:03.144Z,6.69
2022-11-05T16:57:21.741Z,6.58
2022-11-05T17:00:28.961Z,6.71
2022-11-05T17:03:34.896Z,6.67
2022-11-05T17:06:40.584Z,6.75
2022-11-05T17:09:49.755Z,6.82
2022-11-05T17:12:56.913Z,6.63
2022-11-05T17:16:04.268Z,6.66
2022-11-05T17:19:14.476Z,6.71
2022-11-05T17:22:20.144Z,6.69
2022-11-05T17:25:29.478Z,6.72
2022-11-05T17:28:36.071Z,6.59
2022-11-05T17:31:43.386Z,6.66
2022-11-05T17:34:49.152Z,6.74
2022-11-05T17:37:54.779Z,6.67
2022-11-05T17:41:03.111Z,6.67
2022-11-05T17:44:09.091Z,6.67
2022-11-05T17:47:14.982Z,6.71
2022-11-05T17:50:21.372Z,6.72
2022-11-05T17:53:27.007Z,6.65
2022-11-05T17:56:40.274Z,6.66
2022-11-05T17:59:49.032Z,6.74
2022-11-05T18:02:57.295Z,6.67
2022-11-05T18:06:08.166Z,6.64
2022-11-05T18:09:15.314Z,6.77
2022-11-05T18:12:23.702Z,6.84
2022-11-05T18:15:29.583Z,6.71
2022-11-05T18:18:35.237Z,6.83
2022-11-05T18:21:41.477Z,6.76
2022-11-05T18:24:47.409Z,6.68
2022-11-05T18:27:55.816Z,6.64
2022-11-05T18:31:01.358Z,6.69
2022-11-05T18:34:10.575Z,6.81
2022-11-05T18:37:19.167Z,6.82
2022-11-05T18:40:24.949Z,6.72
2022-11-05T18:43:33.367Z,6.78
2022-11-05T18:50:05.532Z,6.80
2022-11-05T18:53:11.354Z,6.76
2022-11-05T18:56:20.920Z,6.75
2022-11-05T18:59:37.698Z,6.64
2022-11-05T19:02:44.273Z,6.71
2022-11-05T19:05:50.210Z,6.72
2022-11-05T19:08:57.948Z,6.73
2022-11-05T19:12:04.065Z,6.68
2022-11-05T19:15:13.689Z,6.78
2022-11-05T19:18:19.649Z,6.83
2022-11-05T19:21:27.786Z,6.76
2022-11-05T19:24:33.516Z,6.80
2022-11-05T19:27:44.561Z,6.67
2022-11-05T19:30:53.938Z,6.67
2022-11-05T19:34:04.080Z,6.67
2022-11-05T19:37:12.590Z,6.64
2022-11-05T19:40:18.227Z,6.55
2022-11-05T19:43:24.106Z,6.60
2022-11-05T19:46:34.044Z,6.64
2022-11-05T19:49:39.718Z,6.63
2022-11-05T19:52:45.311Z,6.61
2022-11-05T19:55:51.091Z,6.58
2022-11-05T19:58:57.702Z,6.62
2022-11-05T20:02:11.928Z,6.60
2022-11-05T20:05:21.584Z,6.59
2022-11-05T20:08:27.496Z,6.54
2022-11-05T20:11:33.121Z,6.58
2022-11-05T20:14:39.040Z,6.56
2022-11-05T20:17:51.442Z,6.61
2022-11-05T20:21:07.017Z,6.54
2022-11-05T20:24:22.415Z,6.44
2022-11-05T20:27:29.754Z,6.44
2022-11-05T20:30:36.118Z,6.48
2022-11-05T20:33:50.959Z,6.43
2022-11-05T20:36:59.075Z,6.43
2022-11-05T20:40:05.878Z,6.39
2022-11-05T20:43:12.666Z,6.48
2022-11-05T20:46:23.907Z,6.43
2022-11-05T20:49:37.891Z,6.49
2022-11-05T20:52:46.035Z,6.51
2022-11-05T20:55:53.966Z,6.48
2022-11-05T20:59:03.952Z,6.41
2022-11-05T21:02:14.196Z,6.35
2022-11-05T21:05:24.493Z,6.27
2022-11-05T21:08:32.350Z,6.27
2022-11-05T21:11:51.280Z,6.30
2022-11-05T21:14:57.324Z,6.26
2022-11-05T21:18:11.576Z,6.35
2022-11-05T21:21:23.590Z,6.36
2022-11-05T21:24:41.051Z,6.28
2022-11-05T21:27:47.250Z,6.28
2022-11-05T21:30:55.369Z,6.34
2022-11-05T21:34:02.837Z,6.30
2022-11-05T21:37:18.569Z,6.37
2022-11-05T21:40:27.918Z,6.36
2022-11-05T21:43:34.891Z,6.39
2022-11-05T21:46:41.579Z,6.37
2022-11-05T21:49:55.227Z,6.38
2022-11-05T21:53:16.861Z,6.39
2022-11-05T21:56:43.466Z,6.50
2022-11-05T21:59:52.483Z,6.59
2022-11-05T22:03:04.411Z,6.55
2022-11-05T22:06:11.616Z,6.54
2022-11-05T22:09:21.923Z,6.59
2022-11-05T22:12:29.706Z,6.57
2022-11-05T22:15:35.261Z,6.58
2022-11-05T22:18:43.786Z,6.61
2022-11-05T22:21:49.948Z,6.45
2022-11-05T22:24:58.316Z,6.41
2022-11-05T22:28:03.866Z,6.33
2022-11-05T22:31:16.343Z,6.41
2022-11-05T22:34:22.169Z,6.46
2022-11-05T22:37:27.921Z,6.40
2022-11-05T22:40:36.243Z,6.40
2022-11-05T22:43:42.956Z,6.38
2022-11-05T22:46:49.025Z,6.37
2022-11-05T22:49:54.652Z,6.40
2022-11-05T22:53:00.260Z,6.43
2022-11-05T22:56:11.747Z,6.37
2022-11-05T22:59:19.182Z,6.39
2022-11-05T23:02:25.049Z,6.40
2022-11-05T23:05:30.743Z,6.43
2022-11-05T23:08:48.807Z,6.43
2022-11-05T23:11:57.543Z,6.36
2022-11-05T23:15:06.385Z,6.37
2022-11-05T23:18:25.228Z,6.32
2022-11-05T23:21:43.148Z,6.16
2022-11-05T23:24:49.879Z,6.11
2022-11-05T23:27:58.301Z,6.16
2022-11-05T23:31:16.276Z,6.22
2022-11-05T23:34:23.522Z,6.18
2022-11-05T23:37:45.101Z,6.10
2022-11-05T23:41:02.823Z,6.07
2022-11-05T23:44:27.137Z,6.18
2022-11-05T23:47:45.151Z,6.21
2022-11-05T23:50:56.141Z,6.19
2022-11-05T23:54:01.756Z,6.00
2022-11-05T23:57:07.913Z,6.01
